createdAt,value
2022-08-02T00:00:48.535Z,0.00
2022-08-02T00:01:48.559Z,0.00
2022-08-02T00:02:48.546Z,0.00
2022-08-02T00:03:48.586Z,0.00
2022-08-02T00:04:48.622Z,0.00
2022-08-02T00:05:52.911Z,0.00
2022-08-02T00:06:48.696Z,0.00
2022-08-02T00:07:48.739Z,0.00
2022-08-02T00:08:48.771Z,0.00
2022-08-02T00:09:48.810Z,0.00
2022-08-02T00:10:48.851Z,0.00
2022-08-02T00:11:48.884Z,0.00
2022-08-02T00:12:48.929Z,0.00
2022-08-02T00:13:48.969Z,0.00
2022-08-02T00:14:48.997Z,0.00
2022-08-02T00:15:49.039Z,0.00
2022-08-02T00:16:49.073Z,0.00
2022-08-02T00:17:49.110Z,0.00
2022-08-02T00:18:49.147Z,0.00
2022-08-02T00:19:49.186Z,0.00
2022-08-02T00:20:49.230Z,0.00
2022-08-02T00:21:49.260Z,0.00
2022-08-02T00:22:49.297Z,0.00
2022-08-02T00:24:28.275Z,0.00
2022-08-02T00:24:49.372Z,0.00
2022-08-02T00:25:54.471Z,0.00
2022-08-02T00:26:49.446Z,0.00
2022-08-02T00:27:49.488Z,0.00
2022-08-02T00:28:49.520Z,0.00
2022-08-02T00:29:53.118Z,0.00
2022-08-02T00:30:49.596Z,0.00
2022-08-02T00:31:49.637Z,0.00
2022-08-02T00:32:49.670Z,0.00
2022-08-02T00:34:05.772Z,0.00
2022-08-02T00:34:49.749Z,0.00
2022-08-02T00:35:49.786Z,0.00
2022-08-02T00:36:49.821Z,0.00
2022-08-02T00:37:49.863Z,0.00
2022-08-02T00:38:49.898Z,0.00
2022-08-02T00:39:49.937Z,0.00
2022-08-02T00:40:49.971Z,0.00
2022-08-02T00:41:50.011Z,0.00
2022-08-02T00:42:50.046Z,0.00
2022-08-02T00:43:50.088Z,0.00
2022-08-02T00:44:50.123Z,0.00
2022-08-02T00:46:02.636Z,0.00
2022-08-02T00:46:50.199Z,0.00
2022-08-02T00:47:50.235Z,0.00
2022-08-02T00:48:50.336Z,0.00
2022-08-02T00:49:50.309Z,0.00
2022-08-02T00:50:50.345Z,0.00
2022-08-02T00:51:50.385Z,0.00
2022-08-02T00:52:50.422Z,0.00
2022-08-02T00:53:50.463Z,0.00
2022-08-02T00:54:50.498Z,0.00
2022-08-02T00:55:50.537Z,0.00
2022-08-02T00:56:51.216Z,0.00
2022-08-02T00:57:50.609Z,0.00
2022-08-02T00:58:50.646Z,0.00
2022-08-02T00:59:50.685Z,0.00
2022-08-02T01:00:50.724Z,0.00
2022-08-02T01:01:56.937Z,0.00
2022-08-02T01:02:50.799Z,0.00
2022-08-02T01:03:50.837Z,0.00
2022-08-02T01:04:50.871Z,0.00
2022-08-02T01:06:10.138Z,0.00
2022-08-02T01:06:50.949Z,0.00
2022-08-02T01:07:50.989Z,0.00
2022-08-02T01:08:51.022Z,0.00
2022-08-02T01:09:51.063Z,0.00
2022-08-02T01:10:51.100Z,0.00
2022-08-02T01:11:51.140Z,0.00
2022-08-02T01:12:51.173Z,0.00
2022-08-02T01:13:51.209Z,0.00
2022-08-02T01:14:51.245Z,0.00
2022-08-02T01:15:51.287Z,0.00
2022-08-02T01:16:51.322Z,0.00
2022-08-02T01:17:51.362Z,0.00
2022-08-02T01:18:51.397Z,0.00
2022-08-02T01:19:51.435Z,0.00
2022-08-02T01:20:51.482Z,0.00
2022-08-02T01:21:51.509Z,0.00
2022-08-02T01:23:01.708Z,0.00
2022-08-02T01:23:51.584Z,0.00
2022-08-02T01:24:51.621Z,0.00
2022-08-02T01:25:51.659Z,0.00
2022-08-02T01:26:51.696Z,0.00
2022-08-02T01:27:51.733Z,0.00
2022-08-02T01:28:51.771Z,0.00
2022-08-02T01:29:51.810Z,0.00
2022-08-02T01:30:51.925Z,0.00
2022-08-02T01:31:51.883Z,0.00
2022-08-02T01:32:51.918Z,0.00
2022-08-02T01:33:51.960Z,0.00
2022-08-02T01:34:51.995Z,0.00
2022-08-02T01:35:52.037Z,0.00
2022-08-02T01:36:52.072Z,0.00
2022-08-02T01:37:52.105Z,0.00
2022-08-02T01:38:52.146Z,0.00
2022-08-02T01:39:52.181Z,0.00
2022-08-02T01:40:52.219Z,0.00
2022-08-02T01:41:57.345Z,0.00
2022-08-02T01:42:52.293Z,0.00
2022-08-02T01:43:52.334Z,0.00
2022-08-02T01:44:52.374Z,0.00
2022-08-02T01:45:52.406Z,0.00
2022-08-02T01:46:52.445Z,0.00
2022-08-02T01:47:52.481Z,0.00
2022-08-02T01:48:52.567Z,0.00
2022-08-02T01:49:52.555Z,0.00
2022-08-02T01:50:52.592Z,0.00
2022-08-02T01:51:52.630Z,0.00
2022-08-02T01:52:53.816Z,0.00
2022-08-02T01:53:52.703Z,0.00
2022-08-02T01:54:52.741Z,0.00
2022-08-02T01:55:57.799Z,0.00
2022-08-02T01:56:52.818Z,0.00
2022-08-02T01:57:52.854Z,0.00
2022-08-02T01:58:52.894Z,0.00
2022-08-02T01:59:52.929Z,0.00
2022-08-02T02:25:26.869Z,0.00
2022-08-02T02:25:56.387Z,0.00
2022-08-02T02:28:00.481Z,0.00
2022-08-02T02:29:00.509Z,0.00
2022-08-02T02:30:53.725Z,0.00
2022-08-02T02:31:53.726Z,0.00
2022-08-02T02:33:46.897Z,0.00
2022-08-02T02:34:46.927Z,0.00
2022-08-02T02:36:40.104Z,0.00
2022-08-02T02:37:40.138Z,0.00
2022-08-02T02:39:33.332Z,0.00
2022-08-02T02:40:33.345Z,0.00
2022-08-02T02:42:26.562Z,0.00
2022-08-02T02:43:26.557Z,0.00
2022-08-02T02:45:19.734Z,0.00
2022-08-02T02:46:19.767Z,0.00
2022-08-02T02:48:23.891Z,0.00
2022-08-02T02:49:23.930Z,0.00
2022-08-02T02:51:27.995Z,0.00
2022-08-02T02:52:28.015Z,0.00
2022-08-02T02:53:28.062Z,0.00
2022-08-02T02:54:34.587Z,0.00
2022-08-02T02:55:28.126Z,0.00
2022-08-02T02:56:28.164Z,0.00
2022-08-02T02:57:28.203Z,0.00
2022-08-02T02:58:28.712Z,0.00
2022-08-02T02:59:28.277Z,0.00
2022-08-02T03:00:28.315Z,0.00
2022-08-02T03:01:55.496Z,0.00
2022-08-02T03:02:28.385Z,0.00
2022-08-02T03:03:28.427Z,0.00
2022-08-02T03:04:56.083Z,0.00
2022-08-02T03:05:28.503Z,4.00
2022-08-02T03:06:28.538Z,0.00
2022-08-02T03:07:28.574Z,0.00
2022-08-02T03:08:28.610Z,4.00
2022-08-02T03:09:28.649Z,0.00
2022-08-02T03:10:28.690Z,4.00
2022-08-02T03:11:28.723Z,4.00
2022-08-02T03:12:32.250Z,4.00
2022-08-02T03:13:33.259Z,4.00
2022-08-02T03:14:28.834Z,4.00
2022-08-02T03:15:28.872Z,4.00
2022-08-02T03:16:28.908Z,8.00
2022-08-02T03:17:28.946Z,4.00
2022-08-02T03:18:28.982Z,4.00
2022-08-02T03:19:33.229Z,8.00
2022-08-02T03:20:29.056Z,4.00
2022-08-02T03:21:29.096Z,8.00
2022-08-02T03:22:29.131Z,8.00
2022-08-02T03:23:29.168Z,8.00
2022-08-02T03:24:29.205Z,12.00
2022-08-02T03:25:29.243Z,12.00
2022-08-02T03:26:29.281Z,8.00
2022-08-02T03:27:29.317Z,12.00
2022-08-02T03:28:29.354Z,16.00
2022-08-02T03:29:34.055Z,16.00
2022-08-02T03:30:29.430Z,16.00
2022-08-02T03:31:29.494Z,16.00
2022-08-02T03:32:29.530Z,16.00
2022-08-02T03:33:29.539Z,20.00
2022-08-02T03:34:29.579Z,24.00
2022-08-02T03:35:29.618Z,24.00
2022-08-02T03:36:29.650Z,28.00
2022-08-02T03:37:29.689Z,32.00
2022-08-02T03:38:29.724Z,32.00
2022-08-02T03:39:29.762Z,36.00
2022-08-02T03:40:29.802Z,36.00
2022-08-02T03:41:29.856Z,40.00
2022-08-02T03:42:29.873Z,44.00
2022-08-02T03:43:29.910Z,44.00
2022-08-02T03:44:29.949Z,48.00
2022-08-02T03:45:29.984Z,48.00
2022-08-02T03:46:30.028Z,52.00
2022-08-02T03:47:30.059Z,52.00
2022-08-02T03:48:34.164Z,52.00
2022-08-02T03:49:30.307Z,52.00
2022-08-02T03:50:30.167Z,52.00
2022-08-02T03:51:30.208Z,48.00
2022-08-02T03:52:30.243Z,44.00
2022-08-02T03:53:30.284Z,40.00
2022-08-02T03:54:33.083Z,40.00
2022-08-02T03:55:30.354Z,40.00
2022-08-02T03:56:30.391Z,40.00
2022-08-02T03:57:30.430Z,44.00
2022-08-02T03:58:30.465Z,44.00
2022-08-02T03:59:32.608Z,48.00
2022-08-02T04:00:30.539Z,56.00
2022-08-02T04:01:30.656Z,60.00
2022-08-02T04:02:30.615Z,60.00
2022-08-02T04:03:30.649Z,48.00
2022-08-02T04:04:30.686Z,44.00
2022-08-02T04:05:30.723Z,48.00
2022-08-02T04:06:30.762Z,52.00
2022-08-02T04:08:36.151Z,60.00
2022-08-02T04:08:37.000Z,68.00
2022-08-02T04:09:30.873Z,80.00
2022-08-02T04:10:30.911Z,92.00
2022-08-02T04:11:30.951Z,96.00
2022-08-02T04:12:30.983Z,100.00
2022-08-02T04:13:34.423Z,104.00
2022-08-02T04:14:31.058Z,108.00
2022-08-02T04:15:31.094Z,108.00
2022-08-02T04:16:31.130Z,108.00
2022-08-02T04:17:31.170Z,116.00
2022-08-02T04:18:31.204Z,120.00
2022-08-02T04:19:31.240Z,120.00
2022-08-02T04:20:31.277Z,128.00
2022-08-02T04:21:48.931Z,132.00
2022-08-02T04:22:31.351Z,136.00
2022-08-02T04:23:31.387Z,136.00
2022-08-02T04:24:31.426Z,144.00
2022-08-02T04:25:35.584Z,144.00
2022-08-02T04:26:31.503Z,152.00
2022-08-02T04:28:15.441Z,156.00
2022-08-02T04:28:31.573Z,160.00
2022-08-02T04:29:31.611Z,164.00
2022-08-02T04:30:31.651Z,168.00
2022-08-02T04:31:31.685Z,172.00
2022-08-02T04:32:31.721Z,176.00
2022-08-02T04:33:31.761Z,180.00
2022-08-02T04:34:31.798Z,180.00
2022-08-02T04:35:31.833Z,184.00
2022-08-02T04:36:32.059Z,188.00
2022-08-02T04:37:31.907Z,192.00
2022-08-02T04:38:31.942Z,192.00
2022-08-02T04:39:31.980Z,196.00
2022-08-02T04:40:39.226Z,200.00
2022-08-02T04:42:36.075Z,204.00
2022-08-02T04:43:36.103Z,204.00
2022-08-02T04:45:40.190Z,212.00
2022-08-02T04:46:40.189Z,212.00
2022-08-02T04:48:44.251Z,220.00
2022-08-02T04:49:44.280Z,224.00
2022-08-02T04:51:48.335Z,224.00
2022-08-02T04:52:48.371Z,228.00
2022-08-02T04:54:41.347Z,232.00
2022-08-02T04:55:41.376Z,236.00
2022-08-02T04:57:52.708Z,244.00
2022-08-02T04:58:45.465Z,244.00
2022-08-02T05:00:49.578Z,252.00
2022-08-02T05:01:49.555Z,256.00
2022-08-02T05:03:53.647Z,256.00
2022-08-02T05:04:53.645Z,260.00
2022-08-02T05:06:57.703Z,260.00
2022-08-02T05:07:57.733Z,264.00
2022-08-02T05:10:02.322Z,268.00
2022-08-02T05:11:01.829Z,272.00
2022-08-02T05:13:05.895Z,276.00
2022-08-02T05:14:05.917Z,276.00
2022-08-02T05:15:05.953Z,280.00
2022-08-02T05:16:05.990Z,284.00
2022-08-02T05:17:06.026Z,284.00
2022-08-02T05:18:06.064Z,292.00
2022-08-02T05:19:06.105Z,300.00
2022-08-02T05:20:06.138Z,304.00
2022-08-02T05:21:06.179Z,308.00
2022-08-02T05:22:06.212Z,312.00
2022-08-02T05:23:06.249Z,320.00
2022-08-02T05:24:06.285Z,324.00
2022-08-02T05:25:06.318Z,332.00
2022-08-02T05:26:06.360Z,336.00
2022-08-02T05:27:16.490Z,328.00
2022-08-02T05:28:11.280Z,328.00
2022-08-02T05:29:06.471Z,324.00
2022-08-02T05:30:06.508Z,316.00
2022-08-02T05:31:06.542Z,312.00
2022-08-02T05:32:06.579Z,308.00
2022-08-02T05:33:06.613Z,308.00
2022-08-02T05:34:10.009Z,300.00
2022-08-02T05:35:06.690Z,304.00
2022-08-02T05:36:06.730Z,308.00
2022-08-02T05:37:09.977Z,312.00
2022-08-02T05:38:10.084Z,320.00
2022-08-02T05:39:06.836Z,316.00
2022-08-02T05:40:13.100Z,324.00
2022-08-02T05:41:06.908Z,332.00
2022-08-02T05:42:06.949Z,336.00
2022-08-02T05:43:06.987Z,336.00
2022-08-02T05:44:07.021Z,336.00
2022-08-02T05:45:07.058Z,340.00
2022-08-02T05:46:07.097Z,284.00
2022-08-02T05:47:07.136Z,336.00
2022-08-02T05:48:07.168Z,332.00
2022-08-02T05:49:07.283Z,332.00
2022-08-02T05:50:07.242Z,324.00
2022-08-02T05:51:07.278Z,320.00
2022-08-02T05:52:07.318Z,316.00
2022-08-02T05:53:07.352Z,316.00
2022-08-02T05:54:07.393Z,320.00
2022-08-02T05:55:07.431Z,320.00
2022-08-02T05:56:08.721Z,324.00
2022-08-02T05:57:07.500Z,332.00
2022-08-02T05:58:07.541Z,328.00
2022-08-02T05:59:07.574Z,320.00
2022-08-02T06:00:07.623Z,328.00
2022-08-02T06:01:07.647Z,332.00
2022-08-02T06:02:07.725Z,344.00
2022-08-02T06:03:07.722Z,344.00
2022-08-02T06:04:07.759Z,348.00
2022-08-02T06:05:07.796Z,348.00
2022-08-02T06:06:07.834Z,344.00
2022-08-02T06:07:07.869Z,348.00
2022-08-02T06:08:07.907Z,352.00
2022-08-02T06:09:07.942Z,360.00
2022-08-02T06:10:07.982Z,364.00
2022-08-02T06:11:08.018Z,372.00
2022-08-02T06:12:08.055Z,380.00
2022-08-02T06:13:08.094Z,388.00
2022-08-02T06:14:08.139Z,388.00
2022-08-02T06:15:08.164Z,392.00
2022-08-02T06:16:08.202Z,392.00
2022-08-02T06:17:08.239Z,388.00
2022-08-02T06:18:08.279Z,384.00
2022-08-02T06:19:08.314Z,388.00
2022-08-02T06:20:08.351Z,380.00
2022-08-02T06:22:32.599Z,384.00
2022-08-02T06:22:35.178Z,380.00
2022-08-02T06:23:13.316Z,392.00
2022-08-02T06:24:08.501Z,404.00
2022-08-02T06:25:11.407Z,416.00
2022-08-02T06:26:08.574Z,428.00
2022-08-02T06:27:08.609Z,436.00
2022-08-02T06:28:11.275Z,448.00
2022-08-02T06:29:08.684Z,456.00
2022-08-02T06:30:08.731Z,460.00
2022-08-02T06:31:08.760Z,464.00
2022-08-02T06:32:09.237Z,460.00
2022-08-02T06:33:08.834Z,464.00
2022-08-02T06:34:08.869Z,472.00
2022-08-02T06:35:08.907Z,472.00
2022-08-02T06:36:08.943Z,476.00
2022-08-02T06:37:08.981Z,476.00
2022-08-02T06:38:09.019Z,472.00
2022-08-02T06:39:09.055Z,460.00
2022-08-02T06:40:09.092Z,452.00
2022-08-02T06:41:09.171Z,448.00
2022-08-02T06:42:09.510Z,448.00
2022-08-02T06:43:09.203Z,452.00
2022-08-02T06:44:44.742Z,448.00
2022-08-02T06:45:09.277Z,460.00
2022-08-02T06:47:09.294Z,468.00
2022-08-02T06:47:12.763Z,468.00
2022-08-02T06:48:09.391Z,464.00
2022-08-02T06:49:09.468Z,472.00
2022-08-02T06:50:09.469Z,476.00
2022-08-02T06:51:09.500Z,484.00
2022-08-02T06:52:09.849Z,492.00
2022-08-02T06:53:09.579Z,496.00
2022-08-02T06:54:09.612Z,504.00
2022-08-02T06:55:09.651Z,504.00
2022-08-02T06:56:09.688Z,504.00
2022-08-02T06:57:09.725Z,500.00
2022-08-02T06:58:09.762Z,504.00
2022-08-02T06:59:09.801Z,508.00
2022-08-02T07:00:09.840Z,504.00
2022-08-02T07:01:09.989Z,496.00
2022-08-02T07:02:10.146Z,492.00
2022-08-02T07:03:09.948Z,492.00
2022-08-02T07:04:09.987Z,488.00
2022-08-02T07:05:10.034Z,484.00
2022-08-02T07:06:10.072Z,484.00
2022-08-02T07:07:10.098Z,480.00
2022-08-02T07:08:10.137Z,480.00
2022-08-02T07:09:20.679Z,476.00
2022-08-02T07:10:10.211Z,468.00
2022-08-02T07:11:10.248Z,468.00
2022-08-02T07:12:10.633Z,472.00
2022-08-02T07:13:10.321Z,476.00
2022-08-02T07:14:10.362Z,484.00
2022-08-02T07:15:10.398Z,496.00
2022-08-02T07:16:10.435Z,496.00
2022-08-02T07:17:10.471Z,504.00
2022-08-02T07:18:10.510Z,512.00
2022-08-02T07:19:10.547Z,496.00
2022-08-02T07:20:10.598Z,484.00
2022-08-02T07:21:10.620Z,468.00
2022-08-02T07:22:10.708Z,456.00
2022-08-02T07:23:10.700Z,456.00
2022-08-02T07:24:10.735Z,452.00
2022-08-02T07:25:10.772Z,452.00
2022-08-02T07:26:10.811Z,456.00
2022-08-02T07:27:12.262Z,448.00
2022-08-02T07:28:20.803Z,440.00
2022-08-02T07:29:10.919Z,428.00
2022-08-02T07:30:10.962Z,432.00
2022-08-02T07:31:10.997Z,432.00
2022-08-02T07:32:11.262Z,436.00
2022-08-02T07:33:11.079Z,444.00
2022-08-02T07:34:11.111Z,444.00
2022-08-02T07:35:11.149Z,440.00
2022-08-02T07:36:16.867Z,436.00
2022-08-02T07:37:23.484Z,428.00
2022-08-02T07:38:11.263Z,428.00
2022-08-02T07:39:11.298Z,424.00
2022-08-02T07:40:14.837Z,436.00
2022-08-02T07:41:11.372Z,444.00
2022-08-02T07:42:11.590Z,456.00
2022-08-02T07:43:11.448Z,464.00
2022-08-02T07:44:11.485Z,456.00
2022-08-02T07:45:11.522Z,452.00
2022-08-02T07:46:11.562Z,448.00
2022-08-02T07:47:12.006Z,444.00
2022-08-02T07:48:11.637Z,440.00
2022-08-02T07:49:11.765Z,436.00
2022-08-02T07:50:11.713Z,436.00
2022-08-02T07:51:16.921Z,432.00
2022-08-02T07:52:12.109Z,432.00
2022-08-02T07:53:11.824Z,432.00
2022-08-02T07:54:11.865Z,436.00
2022-08-02T07:55:11.899Z,436.00
2022-08-02T07:56:11.940Z,436.00
2022-08-02T07:57:11.974Z,436.00
2022-08-02T07:58:12.763Z,432.00
2022-08-02T07:59:12.063Z,432.00
2022-08-02T08:00:12.092Z,432.00
2022-08-02T08:01:12.168Z,436.00
2022-08-02T08:02:12.625Z,440.00
2022-08-02T08:03:12.202Z,444.00
2022-08-02T08:04:12.241Z,452.00
2022-08-02T08:05:12.292Z,456.00
2022-08-02T08:06:12.319Z,456.00
2022-08-02T08:07:12.371Z,460.00
2022-08-02T08:08:17.112Z,460.00
2022-08-02T08:09:12.430Z,456.00
2022-08-02T08:10:12.477Z,460.00
2022-08-02T08:11:12.578Z,460.00
2022-08-02T08:12:13.031Z,464.00
2022-08-02T08:13:12.583Z,468.00
2022-08-02T08:14:16.703Z,472.00
2022-08-02T08:15:12.660Z,480.00
2022-08-02T08:16:12.698Z,484.00
2022-08-02T08:17:12.738Z,488.00
2022-08-02T08:18:12.775Z,496.00
2022-08-02T08:19:12.823Z,500.00
2022-08-02T08:20:15.780Z,508.00
2022-08-02T08:21:12.887Z,512.00
2022-08-02T08:22:13.335Z,520.00
2022-08-02T08:23:12.969Z,528.00
2022-08-02T08:24:13.002Z,548.00
2022-08-02T08:25:13.045Z,572.00
2022-08-02T08:26:15.774Z,568.00
2022-08-02T08:27:13.125Z,564.00
2022-08-02T08:28:13.155Z,548.00
2022-08-02T08:29:13.193Z,552.00
2022-08-02T08:30:13.234Z,556.00
2022-08-02T08:31:13.276Z,564.00
2022-08-02T08:32:17.504Z,572.00
2022-08-02T08:33:13.345Z,576.00
2022-08-02T08:34:13.386Z,588.00
2022-08-02T08:35:13.427Z,592.00
2022-08-02T08:36:13.464Z,588.00
2022-08-02T08:37:17.641Z,596.00
2022-08-02T08:38:13.538Z,612.00
2022-08-02T08:39:13.579Z,608.00
2022-08-02T08:40:13.616Z,612.00
2022-08-02T08:41:13.658Z,620.00
2022-08-02T08:42:14.250Z,628.00
2022-08-02T08:43:13.732Z,644.00
2022-08-02T08:44:13.774Z,664.00
2022-08-02T08:45:13.807Z,676.00
2022-08-02T08:46:13.848Z,680.00
2022-08-02T08:47:13.886Z,692.00
2022-08-02T08:48:13.928Z,704.00
2022-08-02T08:49:13.974Z,712.00
2022-08-02T08:50:19.102Z,680.00
2022-08-02T08:51:14.039Z,676.00
2022-08-02T08:52:14.393Z,688.00
2022-08-02T08:53:14.114Z,692.00
2022-08-02T08:54:14.156Z,712.00
2022-08-02T08:55:14.195Z,728.00
2022-08-02T08:56:16.446Z,744.00
2022-08-02T08:57:14.268Z,728.00
2022-08-02T08:58:14.309Z,712.00
2022-08-02T08:59:14.348Z,708.00
2022-08-02T09:00:14.385Z,680.00
2022-08-02T09:01:14.538Z,672.00
2022-08-02T09:02:20.324Z,676.00
2022-08-02T09:03:14.505Z,664.00
2022-08-02T09:04:14.541Z,664.00
2022-08-02T09:05:14.581Z,664.00
2022-08-02T09:06:14.619Z,668.00
2022-08-02T09:07:14.659Z,676.00
2022-08-02T09:08:16.963Z,676.00
2022-08-02T09:09:14.738Z,684.00
2022-08-02T09:10:14.774Z,704.00
2022-08-02T09:11:14.813Z,724.00
2022-08-02T09:12:15.245Z,752.00
2022-08-02T09:13:38.473Z,760.00
2022-08-02T09:14:14.930Z,740.00
2022-08-02T09:15:16.118Z,740.00
2022-08-02T09:16:15.144Z,756.00
2022-08-02T09:17:15.046Z,800.00
2022-08-02T09:18:15.085Z,848.00
2022-08-02T09:19:15.126Z,880.00
2022-08-02T09:20:15.166Z,856.00
2022-08-02T09:21:15.624Z,844.00
2022-08-02T09:22:16.351Z,856.00
2022-08-02T09:23:15.283Z,892.00
2022-08-02T09:24:15.323Z,880.00
2022-08-02T09:25:15.364Z,844.00
2022-08-02T09:26:15.401Z,848.00
2022-08-02T09:27:15.442Z,840.00
2022-08-02T09:28:15.479Z,832.00
2022-08-02T09:29:15.519Z,828.00
2022-08-02T09:30:15.597Z,832.00
2022-08-02T09:31:15.600Z,852.00
2022-08-02T09:32:15.637Z,880.00
2022-08-02T09:33:15.677Z,900.00
2022-08-02T09:34:15.716Z,884.00
2022-08-02T09:35:15.757Z,884.00
2022-08-02T09:36:15.795Z,920.00
2022-08-02T09:37:15.835Z,932.00
2022-08-02T09:38:15.876Z,940.00
2022-08-02T09:39:15.919Z,940.00
2022-08-02T09:40:16.043Z,936.00
2022-08-02T09:41:16.000Z,940.00
2022-08-02T09:42:16.261Z,940.00
2022-08-02T09:43:16.075Z,928.00
2022-08-02T09:44:16.341Z,932.00
2022-08-02T09:45:16.153Z,924.00
2022-08-02T09:46:16.192Z,924.00
2022-08-02T09:47:16.233Z,920.00
2022-08-02T09:48:16.277Z,932.00
2022-08-02T09:49:16.333Z,948.00
2022-08-02T09:50:16.351Z,976.00
2022-08-02T09:51:16.392Z,1024.00
2022-08-02T09:52:16.434Z,1068.00
2022-08-02T09:53:16.470Z,1152.00
2022-08-02T09:54:16.512Z,1228.00
2022-08-02T09:55:16.554Z,1228.00
2022-08-02T09:56:35.077Z,1184.00
2022-08-02T09:57:16.631Z,1108.00
2022-08-02T09:58:16.672Z,1120.00
2022-08-02T09:59:16.710Z,1092.00
2022-08-02T10:00:27.018Z,1076.00
2022-08-02T10:01:16.857Z,1068.00
2022-08-02T10:02:19.759Z,1048.00
2022-08-02T10:03:22.686Z,1044.00
2022-08-02T10:04:21.375Z,944.00
2022-08-02T10:05:16.950Z,940.00
2022-08-02T10:06:16.991Z,956.00
2022-08-02T10:07:17.032Z,1036.00
2022-08-02T10:08:17.069Z,1080.00
2022-08-02T10:09:17.110Z,1084.00
2022-08-02T10:10:17.149Z,1176.00
2022-08-02T10:11:17.191Z,1244.00
2022-08-02T10:12:17.231Z,1360.00
2022-08-02T10:13:21.614Z,1340.00
2022-08-02T10:14:17.309Z,1336.00
2022-08-02T10:15:17.352Z,1372.00
2022-08-02T10:16:17.390Z,1428.00
2022-08-02T10:17:17.433Z,1436.00
2022-08-02T10:18:36.195Z,1284.00
2022-08-02T10:19:17.512Z,1224.00
2022-08-02T10:20:17.557Z,1248.00
2022-08-02T10:21:17.598Z,1244.00
2022-08-02T10:22:19.885Z,1332.00
2022-08-02T10:23:17.673Z,1420.00
2022-08-02T10:24:17.714Z,1408.00
2022-08-02T10:25:17.754Z,1244.00
2022-08-02T10:26:17.796Z,1108.00
2022-08-02T10:27:17.845Z,1168.00
2022-08-02T10:28:17.874Z,1156.00
2022-08-02T10:29:17.915Z,1180.00
2022-08-02T10:30:17.956Z,1204.00
2022-08-02T10:31:17.995Z,1184.00
2022-08-02T10:32:18.034Z,1180.00
2022-08-02T10:33:18.077Z,1220.00
2022-08-02T10:34:18.115Z,1236.00
2022-08-02T10:35:19.820Z,1316.00
2022-08-02T10:36:18.200Z,1392.00
2022-08-02T10:37:18.237Z,1532.00
2022-08-02T10:38:18.277Z,1620.00
2022-08-02T10:39:18.319Z,1664.00
2022-08-02T10:40:18.356Z,1716.00
2022-08-02T10:41:25.594Z,1636.00
2022-08-02T10:43:22.477Z,1624.00
2022-08-02T10:44:24.281Z,1540.00
2022-08-02T10:46:15.689Z,1384.00
2022-08-02T10:47:15.730Z,1336.00
2022-08-02T10:49:49.805Z,1276.00
2022-08-02T10:50:19.842Z,1264.00
2022-08-02T10:52:23.910Z,1292.00
2022-08-02T10:53:23.961Z,1268.00
2022-08-02T10:55:28.020Z,1428.00
2022-08-02T10:56:28.054Z,1356.00
2022-08-02T10:58:32.131Z,1232.00
2022-08-02T10:59:32.162Z,1052.00
2022-08-02T11:01:38.576Z,972.00
2022-08-02T11:02:36.274Z,976.00
2022-08-02T11:04:29.266Z,992.00
2022-08-02T11:05:29.298Z,976.00
2022-08-02T11:07:33.389Z,1004.00
2022-08-02T11:08:33.407Z,984.00
2022-08-02T11:10:37.505Z,972.00
2022-08-02T11:11:53.804Z,960.00
2022-08-02T11:13:30.714Z,1000.00
2022-08-02T11:14:30.754Z,1048.00
2022-08-02T11:16:34.831Z,1240.00
2022-08-02T11:17:38.687Z,1348.00
2022-08-02T11:19:38.948Z,1404.00
2022-08-02T11:20:38.986Z,1376.00
2022-08-02T11:22:43.056Z,1224.00
2022-08-02T11:23:45.029Z,1104.00
2022-08-02T11:26:07.564Z,1000.00
2022-08-02T11:26:47.203Z,992.00
2022-08-02T11:28:40.383Z,972.00
2022-08-02T11:29:40.422Z,976.00
2022-08-02T11:31:44.530Z,1024.00
2022-08-02T11:32:44.532Z,1036.00
2022-08-02T11:34:38.451Z,1008.00
2022-08-02T11:35:37.553Z,1008.00
2022-08-02T11:37:41.652Z,980.00
2022-08-02T11:38:41.673Z,980.00
2022-08-02T11:39:41.719Z,1012.00
2022-08-02T11:40:41.757Z,1088.00
2022-08-02T11:41:46.901Z,1116.00
2022-08-02T11:42:41.847Z,1112.00
2022-08-02T11:43:41.882Z,1092.00
2022-08-02T11:44:41.922Z,1060.00
2022-08-02T11:45:41.962Z,1008.00
2022-08-02T11:46:42.004Z,980.00
2022-08-02T11:47:42.041Z,964.00
2022-08-02T11:48:42.090Z,948.00
2022-08-02T11:49:42.192Z,932.00
2022-08-02T11:50:42.162Z,920.00
2022-08-02T11:51:42.438Z,912.00
2022-08-02T11:52:42.243Z,904.00
2022-08-02T11:53:42.287Z,908.00
2022-08-02T11:54:42.325Z,908.00
2022-08-02T11:55:42.366Z,904.00
2022-08-02T11:56:42.410Z,904.00
2022-08-02T11:58:04.176Z,904.00
2022-08-02T11:58:42.490Z,892.00
2022-08-02T11:59:42.530Z,892.00
2022-08-02T12:00:42.572Z,888.00
2022-08-02T12:01:46.222Z,896.00
2022-08-02T12:02:42.650Z,888.00
2022-08-02T12:03:42.769Z,880.00
2022-08-02T12:04:42.733Z,872.00
2022-08-02T12:06:05.277Z,868.00
2022-08-02T12:06:42.817Z,852.00
2022-08-02T12:07:45.731Z,852.00
2022-08-02T12:08:42.895Z,852.00
2022-08-02T12:09:42.940Z,852.00
2022-08-02T12:10:42.977Z,856.00
2022-08-02T12:11:43.018Z,852.00
2022-08-02T12:12:43.066Z,844.00
2022-08-02T12:13:43.102Z,848.00
2022-08-02T12:14:43.141Z,848.00
2022-08-02T12:15:43.185Z,844.00
2022-08-02T12:16:43.225Z,844.00
2022-08-02T12:17:47.707Z,844.00
2022-08-02T12:18:43.308Z,844.00
2022-08-02T12:19:43.346Z,848.00
2022-08-02T12:20:43.386Z,848.00
2022-08-02T12:21:43.431Z,848.00
2022-08-02T12:22:43.477Z,848.00
2022-08-02T12:23:59.797Z,852.00
2022-08-02T12:24:43.554Z,852.00
2022-08-02T12:25:43.593Z,860.00
2022-08-02T12:26:43.638Z,868.00
2022-08-02T12:27:43.678Z,868.00
2022-08-02T12:28:43.718Z,876.00
2022-08-02T12:29:58.526Z,876.00
2022-08-02T12:30:43.803Z,876.00
2022-08-02T12:31:57.088Z,876.00
2022-08-02T12:32:43.882Z,876.00
2022-08-02T12:33:43.929Z,876.00
2022-08-02T12:34:43.960Z,880.00
2022-08-02T12:35:44.005Z,884.00
2022-08-02T12:36:44.043Z,884.00
2022-08-02T12:37:44.087Z,888.00
2022-08-02T12:38:44.127Z,896.00
2022-08-02T12:39:44.170Z,904.00
2022-08-02T12:40:44.208Z,904.00
2022-08-02T12:41:54.856Z,904.00
2022-08-02T12:42:44.291Z,908.00
2022-08-02T12:43:44.334Z,916.00
2022-08-02T12:44:44.382Z,920.00
2022-08-02T12:45:48.403Z,932.00
2022-08-02T12:46:45.630Z,940.00
2022-08-02T12:47:44.499Z,952.00
2022-08-02T12:49:02.380Z,972.00
2022-08-02T12:49:44.637Z,1004.00
2022-08-02T12:50:44.622Z,1004.00
2022-08-02T12:51:51.214Z,988.00
2022-08-02T12:52:47.066Z,980.00
2022-08-02T12:53:44.745Z,964.00
2022-08-02T12:54:44.791Z,952.00
2022-08-02T12:56:00.972Z,944.00
2022-08-02T12:56:44.867Z,936.00
2022-08-02T12:57:44.910Z,928.00
2022-08-02T12:58:44.951Z,924.00
2022-08-02T12:59:44.993Z,924.00
2022-08-02T13:00:45.035Z,924.00
2022-08-02T13:01:45.134Z,928.00
2022-08-02T13:02:45.115Z,928.00
2022-08-02T13:04:12.273Z,924.00
2022-08-02T13:04:50.164Z,932.00
2022-08-02T13:05:55.926Z,948.00
2022-08-02T13:06:45.736Z,956.00
2022-08-02T13:07:45.321Z,964.00
2022-08-02T13:08:45.364Z,976.00
2022-08-02T13:09:45.407Z,996.00
2022-08-02T13:10:45.447Z,1012.00
2022-08-02T13:11:45.486Z,1024.00
2022-08-02T13:12:45.529Z,1044.00
2022-08-02T13:13:45.569Z,1056.00
2022-08-02T13:14:45.611Z,1072.00
2022-08-02T13:15:49.967Z,1076.00
2022-08-02T13:16:45.693Z,1068.00
2022-08-02T13:17:45.735Z,1068.00
2022-08-02T13:18:45.776Z,1052.00
2022-08-02T13:19:45.854Z,1040.00
2022-08-02T13:20:46.009Z,1044.00
2022-08-02T13:22:02.077Z,1044.00
2022-08-02T13:22:52.724Z,1028.00
2022-08-02T13:23:55.011Z,1040.00
2022-08-02T13:24:56.505Z,1024.00
2022-08-02T13:25:46.066Z,1032.00
2022-08-02T13:26:46.114Z,1052.00
2022-08-02T13:27:46.150Z,1048.00
2022-08-02T13:28:46.191Z,1028.00
2022-08-02T13:29:46.232Z,1004.00
2022-08-02T13:30:46.274Z,992.00
2022-08-02T13:31:46.313Z,964.00
2022-08-02T13:32:46.357Z,924.00
2022-08-02T13:33:46.399Z,916.00
2022-08-02T13:34:46.441Z,916.00
2022-08-02T13:35:46.481Z,940.00
2022-08-02T13:36:46.521Z,964.00
2022-08-02T13:37:46.574Z,984.00
2022-08-02T13:38:46.606Z,1008.00
2022-08-02T13:40:05.630Z,1020.00
2022-08-02T13:41:03.549Z,1028.00
2022-08-02T13:41:46.735Z,1036.00